3T5FAYETTE RGNL AIR CENTER
METARs for airports near 3T5, sorted by distance:
N 15 nm 484' KGYB 172135Z 19004KT 10SM SCT055 36/21 A2998
SE 37 nm 184' KELA 172135Z 10SM CLR 36/23 A2994
N 38 nm 390' KRWV 172135Z 15005KT 10SM BKN055 BKN065 BKN085 35/22 A2996
NW 41 nm 541' KAUS 172053Z 19007KT 10SM SCT060 SCT200 BKN300 34/22 A2994
NW 43 nm 620' KEDC 172135Z 20006KT 8SM CLR 36/21 A2993
W 47 nm 594' KHYI 172056Z 21008KT 10SM CLR 36/21 A2995
NE 50 nm 320' KCLL 172053Z 16010G19KT 10SM FEW050 35/23 A2994
E 55 nm 165' KTME 172135Z 15016G25KT 2SM HZ BKN048 BKN070 31/24 A2999
SE 57 nm 100' KARM 172135Z 20005KT 10SM SCT049 SCT110 34/24 A2995
NE 58 nm 366' KCFD 172135Z 10SM SCT060 SCT070 SCT095 35/22 A2999
W 58 nm 658' KBAZ 172051Z VRB05KT 10SM CLR 35/22 A2994
NW 59 nm 789' KGTU 172056Z 17005KT 10SM BKN060 36/18 A2997
N 60 nm 284' KLHB 172135Z 28004KT 10SM SCT055 BKN085 37/22 A2996
S 63 nm 115' KVCT 172126Z 28005KT 10SM VCTS SCT030 36/22 A2993
NW 63 nm 1230' KRYW 172135Z 21003KT 10SM SCT060 34/19 A3001
E 69 nm 81' KSGR 172150Z 21007KT 10SM FEW055 27/22 A2995
W 72 nm 760' KRND 171955Z 13004KT 10SM BKN060 35/20 A2995
E 73 nm 152' KDWH 172053Z 10SM BKN050 32/23 A2996
S 76 nm 32' KPKV 172142Z 18006KT 10SM BKN037 OVC045 33/26 A2995
N 78 nm 682' KTPL 172151Z 36003KT 10SM BKN070 34/21 A2997
SE 79 nm 14' KPSX 172053Z 17010KT 10SM CLR 32/26 A2996
SE 79 nm 44' KBYY 172135Z 00000KT 10SM RA BKN026 BKN034 OVC075 28/25 A2997
NW 80 nm 847' KILE 172056Z 00000KT 10SM FEW065 37/21 A2997
E 80 nm 68' KAXH 081035Z 09027G39KT 1SM +RA 25/24 A2944
NW 82 nm 1093' KDZB 172135Z 21003KT 10SM CLR 35/17 A2997
W 82 nm 809' KSAT 172051Z 16008KT 10SM SCT055 BKN250 36/21 A2996
NW 83 nm 1015' KGRK 172055Z 00000KT 10SM BKN065 OVC220 36/20 A2996
NW 83 nm 1283' KBMQ 172053Z 19004KT 10SM SCT055 34/22 A2999
NW 83 nm 910' KHLR 172055Z 21005KT 10SM BKN065 35/21 A2995
E 83 nm 95' KIAH 172053Z 19009KT 10SM FEW035 SCT055 SCT110 BKN200 28/21 A2996
E 84 nm 244' KCXO 172053Z 26006KT 10SM SCT055 36/22 A2994
SW 86 nm 577' KSSF 172053Z 15009KT 10SM SCT060 36/19 A2993
NE 86 nm 362' KUTS 141253Z 20004KT 10SM CLR 24/24 A3017
E 88 nm 46' KHOU 172053Z 33005KT 10SM TS FEW015 BKN040CB BKN080 OVC250 27/20 A2998
W 90 nm 690' KSKF 172055Z 16007KT 10SM SCT060 SCT140 BKN200 36/19 A2993
SE 91 nm 25' KLBX 151253Z 00000KT 9SM FEW021 26/26 A3008
E 92 nm 43' KLVJ 172149Z 11006KT 1 1/2SM VCTS BR BKN110 26/24 A2996
E 95 nm 32' KEFD 171954Z 04015G25KT 4SM -TSRA FEW015 BKN030CB 24/22 A3001
N 96 nm 591' KPWG 172141Z 00000KT 8SM -RA SCT070 29/21 A2997
TAFs for airports near 3T5, sorted by distance:
NW 41 nm 541' KAUS TAF
  AMD KAUS 172056Z 1721/1824 20006KT P6SM SCT050 BKN250
  FM180600 VRB04KT P6SM VCSH SCT025 BKN050 PROB30 1812/1818 -TSRA BKN030CB
  FM181800 34007KT P6SM VCSH SCT030 BKN050 PROB30 1818/1824 -TSRA BKN030CB
NE 50 nm 320' KCLL TAF KCLL 171721Z 1718/1818 18007KT P6SM SCT035 SCT250
  FM180300 17007KT 6SM SHRA BR VCTS SCT035CB OVC250
  FM180700 VRB04KT P6SM VCSH SCT030 BKN040
  FM181200 VRB04KT P6SM SCT025 BKN035
  FM181500 27006KT P6SM SCT030
S 63 nm 115' KVCT TAF KVCT 171720Z 1718/1818 15011KT P6SM VCTS FEW035CB FEW250
  FM180100 16006KT P6SM FEW050 FEW250
  FM180900 VRB04KT P6SM FEW010 FEW250
E 69 nm 81' KSGR TAF
  AMD KSGR 172142Z 1722/1818 13015KT P6SM VCTS SCT050CB BKN250
  TEMPO 1722/1723 VRB25KT 5SM TSRA BKN035CB
  FM180000 15009KT P6SM SCT040 BKN250
  FM180600 19004KT P6SM SCT050 BKN250
  FM181100 28003KT P6SM VCSH SCT025 SCT050 BKN120
  TEMPO 1812/1816 TSRA SCT020 BKN035CB
  FM181600 23007KT P6SM SCT035 BKN120
W 72 nm 760' KRND TAF KRND 171000Z 1710/1816 18009KT 9999 FEW009 QNH2994INS
  TEMPO 1711/1714 BKN009
  BECMG 1713/1714 18009KT 9999 BKN012 BKN250 QNH2994INS
  BECMG 1714/1715 17009KT 9999 SCT030 SCT250 QNH2990INS
  BECMG 1722/1723 15010G15KT 9999 FEW060 SCT250 QNH2987INS
  BECMG 1804/1805 16007KT 9999 FEW015 BKN200 QNH2993INS TX37/1721Z TN25/1712Z
W 82 nm 809' KSAT TAF
  AMD KSAT 172056Z 1721/1824 17010KT P6SM SCT050 BKN250
  FM180600 19006KT P6SM SCT025 BKN150
  FM181200 VRB03KT P6SM VCSH SCT020 BKN050 PROB30 1815/1818 -TSRA BKN050CB
  FM181800 01005KT P6SM VCSH SCT020 BKN050 PROB30 1818/1824 -TSRA BKN050CB
NW 83 nm 1015' KGRK TAF KGRK 170800Z 1708/1814 17012KT 9999 FEW250 QNH2997INS
  BECMG 1710/1711 19009KT 9999 SCT030 SCT220 QNH2997INS
  BECMG 1722/1723 16012G18KT 9999 VCTS SCT050CB BKN160 QNH2991INS
  BECMG 1801/1802 15009KT 9999 NSW FEW070 SCT130 QNH2992INS
  BECMG 1809/1810 18012G18KT 9999 VCTS BKN060CB QNH2998INS TX37/1721Z TN24/1712Z
E 83 nm 95' KIAH KIAH 171721Z 1718/1824 17008KT P6SM SCT030 SCT250
  FM180600 VRB04KT P6SM SHRA SCT025 BKN250
  FM181000 VRB02KT P6SM VCSH SCT025 BKN250
  FM181500 28005KT P6SM SCT030 SCT250
  FM181900 VRB05KT P6SM VCSH SCT035 BKN200
E 84 nm 244' KCXO TAF KCXO 171721Z 1718/1818 17006KT P6SM SCT030 SCT200
  FM180100 VRB04KT P6SM SCT030 BKN250
  FM180400 VRB03KT 6SM SHRA BR VCTS SCT030CB OVC250
  FM180900 VRB02KT 5SM BR VCSH SCT020 BKN025
  FM181500 28005KT P6SM SCT030
SW 86 nm 577' KSSF KSSF 171725Z 1718/1818 18008KT P6SM FEW050
  FM180600 18003KT P6SM SCT025 BKN150
  FM181200 VRB03KT P6SM VCSH SCT025 BKN050 PROB30 1815/1818 -TSRA BKN050CB
NE 86 nm 362' KUTS TAF KUTS 171721Z 1718/1818 18006KT P6SM FEW025 FEW250
  FM180300 VRB04KT 6SM SHRA BR VCTS SCT035CB OVC250
  FM180700 VRB03KT P6SM VCSH SCT030 BKN040
  FM181200 VRB02KT P6SM SCT020 BKN025
  FM181500 25005KT P6SM SCT030
  AMD NOT SKED
E 88 nm 46' KHOU TAF
  AMD KHOU 172014Z 1720/1818 18008KT P6SM VCTS SCT015CB BKN250
  TEMPO 1720/1721 VRB25G35KT -TSRA
  FM172200 16008KT P6SM SCT040 BKN250
  FM180700 VRB03KT P6SM -SHRA VCTS SCT025CB BKN250
  FM181100 VRB03KT P6SM VCSH SCT025 BKN250
  FM181500 28005KT P6SM SCT035 BKN250
W 90 nm 690' KSKF TAF KSKF 171800Z 1718/1900 15009KT 9999 FEW050 FEW200 QNH2988INS
  BECMG 1808/1809 VRB05KT 9999 BKN200 QNH2999INS
  BECMG 1815/1816 04010KT 9000 -SHRA VCTS BKN020CB BKN200 QNH2992INS
  BECMG 1818/1819 32010KT 9999 VCSH SCT030 SCT200 QNH2994INS TX37/1721Z TN25/1812Z
SE 91 nm 25' KLBX KLBX 171721Z 1718/1818 19008KT P6SM VCSH SCT025 SCT250
  FM171900 17008KT P6SM VCTS SCT030CB BKN250
  FM172200 16008KT P6SM SCT035 BKN250
  FM180800 VRB03KT 6SM BR VCSH SCT025 BKN250
  FM181300 VRB04KT P6SM SCT025 BKN250
  FM181500 29005KT P6SM SCT030 SCT250
  AMD NOT SKED
E 95 nm 32' KEFD TAF KEFD 172000Z 1720/1902 04012G18KT 9000 -SHRA FEW030 QNH2993INS
  TEMPO 1720/1802 VRB15G25KT 6000 -TSRA FEW015CB BKN030
  BECMG 1801/1802 18009KT 9999 NSW SCT040 BKN100 QNH2990INS
  BECMG 1808/1809 18012KT 9000 -TSRA SCT020CB SCT200 QNH2989INS
  BECMG 1822/1823 18009KT 9999 NSW FEW040 QNH2985INS TX34/1819Z TN25/1812Z

Shortcut to this page: http://wxbay.com.

Data may contain errors.